createdAt,value
2023-03-21T00:01:52.892Z,18.10
2023-03-21T00:04:20.686Z,18.67
2023-03-21T00:06:48.158Z,18.23
2023-03-21T00:09:15.608Z,17.48
2023-03-21T00:11:43.324Z,16.35
2023-03-21T00:14:14.376Z,17.00
2023-03-21T00:16:45.701Z,16.75
2023-03-21T00:19:15.936Z,17.50
2023-03-21T00:22:03.343Z,17.58
2023-03-21T00:24:32.064Z,17.40
2023-03-21T00:27:10.741Z,18.73
2023-03-21T00:29:49.058Z,18.35
2023-03-21T00:32:16.767Z,17.52
2023-03-21T00:34:59.612Z,16.83
2023-03-21T00:37:32.589Z,17.55
2023-03-21T00:40:00.464Z,18.05
2023-03-21T00:42:28.086Z,18.73
2023-03-21T00:44:55.781Z,18.30
2023-03-21T00:47:25.765Z,18.60
2023-03-21T00:49:54.818Z,17.90
2023-03-21T00:52:38.042Z,18.23
2023-03-21T00:55:08.965Z,18.80
2023-03-21T00:57:39.529Z,20.45
2023-03-21T01:00:10.237Z,19.85
2023-03-21T01:02:38.020Z,20.17
2023-03-21T01:05:07.849Z,20.00
2023-03-21T01:07:44.427Z,21.23
2023-03-21T01:10:12.198Z,21.50
2023-03-21T01:12:39.747Z,20.30
2023-03-21T01:15:08.001Z,21.35
2023-03-21T01:17:35.490Z,21.90
2023-03-21T01:20:06.191Z,22.38
2023-03-21T01:22:34.998Z,25.85
2023-03-21T01:25:19.110Z,25.35
2023-03-21T01:27:49.159Z,26.50
2023-03-21T01:30:21.471Z,28.17
2023-03-21T01:32:50.373Z,32.33
2023-03-21T01:35:18.106Z,29.38
2023-03-21T01:37:48.723Z,30.20
2023-03-21T01:40:18.230Z,29.35
2023-03-21T01:42:45.726Z,30.65
2023-03-21T01:45:46.511Z,31.02
2023-03-21T01:48:14.699Z,29.83
2023-03-21T01:50:43.499Z,31.73
2023-03-21T01:53:12.941Z,31.88
2023-03-21T01:55:41.014Z,30.38
2023-03-21T01:58:09.881Z,31.83
2023-03-21T02:00:37.765Z,31.20
2023-03-21T02:03:15.214Z,31.52
2023-03-21T02:05:52.539Z,31.92
2023-03-21T02:08:25.905Z,31.15
2023-03-21T02:11:01.006Z,30.10
2023-03-21T02:13:28.451Z,31.70
2023-03-21T02:16:02.695Z,30.92
2023-03-21T02:18:37.718Z,32.53
2023-03-21T02:21:25.554Z,31.55
2023-03-21T02:24:17.409Z,30.92
2023-03-21T02:27:04.033Z,31.35
2023-03-21T02:29:58.344Z,30.15
2023-03-21T02:32:37.811Z,31.52
2023-03-21T02:35:24.893Z,32.35
2023-03-21T02:38:00.557Z,31.65
2023-03-21T02:40:33.265Z,32.40
2023-03-21T02:43:11.635Z,30.15
2023-03-21T02:45:48.837Z,30.15
2023-03-21T02:48:29.307Z,28.48
2023-03-21T02:51:01.089Z,29.10
2023-03-21T02:53:34.093Z,29.27
2023-03-21T02:56:03.033Z,28.70
2023-03-21T02:58:31.805Z,27.40
2023-03-21T03:00:59.330Z,28.63
2023-03-21T03:03:34.159Z,30.08
2023-03-21T03:06:03.873Z,29.13
2023-03-21T03:08:47.609Z,29.67
2023-03-21T03:11:25.762Z,28.35
2023-03-21T03:14:21.087Z,30.58
2023-03-21T03:16:58.271Z,29.33
2023-03-21T03:19:29.204Z,29.00
2023-03-21T03:21:59.886Z,29.37
2023-03-21T03:24:33.218Z,28.60
2023-03-21T03:27:03.325Z,27.90
2023-03-21T03:29:31.980Z,30.73
2023-03-21T03:32:01.593Z,28.95
2023-03-21T03:34:34.482Z,28.58
2023-03-21T03:37:05.298Z,29.25
2023-03-21T03:39:37.309Z,31.77
2023-03-21T03:42:21.887Z,31.10
2023-03-21T03:44:54.637Z,29.65
2023-03-21T03:47:32.716Z,28.92
2023-03-21T03:50:09.863Z,29.73
2023-03-21T03:52:50.047Z,29.85
2023-03-21T03:55:26.522Z,28.90
2023-03-21T03:57:54.736Z,31.45
2023-03-21T04:00:22.200Z,30.42
2023-03-21T04:02:49.748Z,28.70
2023-03-21T04:05:21.471Z,30.65
2023-03-21T04:07:50.765Z,30.33
2023-03-21T04:10:18.704Z,29.00
2023-03-21T04:12:47.662Z,31.90
2023-03-21T04:15:16.117Z,31.52
2023-03-21T04:17:43.608Z,30.27
2023-03-21T04:20:20.737Z,29.30
2023-03-21T04:22:54.217Z,29.35
2023-03-21T04:25:32.603Z,29.17
2023-03-21T04:28:02.063Z,29.42
2023-03-21T04:30:29.516Z,27.02
2023-03-21T04:32:57.536Z,29.33
2023-03-21T04:35:25.676Z,27.95
2023-03-21T04:37:53.177Z,26.30
2023-03-21T04:40:20.682Z,27.65
2023-03-21T04:42:49.777Z,28.58
2023-03-21T04:45:18.754Z,29.08
2023-03-21T04:47:46.723Z,30.15
2023-03-21T04:50:15.863Z,29.48
2023-03-21T04:52:43.363Z,28.48
2023-03-21T04:55:11.272Z,28.77
2023-03-21T04:57:39.449Z,29.17
2023-03-21T05:00:10.839Z,30.75
2023-03-21T05:02:39.915Z,28.67
2023-03-21T05:05:11.354Z,31.15
2023-03-21T05:07:39.711Z,30.50
2023-03-21T05:10:09.011Z,30.65
2023-03-21T05:12:36.585Z,29.88
2023-03-21T05:15:05.506Z,31.63
2023-03-21T05:17:32.960Z,30.20
2023-03-21T05:20:01.735Z,32.67
2023-03-21T05:22:29.320Z,30.30
2023-03-21T05:24:56.930Z,32.80
2023-03-21T05:27:35.508Z,31.17
2023-03-21T05:30:06.805Z,28.48
2023-03-21T05:32:34.306Z,22.80
2023-03-21T05:35:03.304Z,30.42
2023-03-21T05:37:30.934Z,29.45
2023-03-21T05:39:58.412Z,30.42
2023-03-21T05:42:25.930Z,32.28
2023-03-21T05:44:53.547Z,32.90
2023-03-21T05:47:21.168Z,31.20
2023-03-21T05:49:49.848Z,28.38
2023-03-21T05:52:18.798Z,30.70
2023-03-21T05:54:46.352Z,32.00
2023-03-21T05:57:13.825Z,31.90
2023-03-21T05:59:41.314Z,30.75
2023-03-21T06:02:08.770Z,30.48
2023-03-21T06:04:36.247Z,33.40
2023-03-21T06:07:03.717Z,29.63
2023-03-21T06:09:33.672Z,32.28
2023-03-21T06:12:01.322Z,32.65
2023-03-21T06:14:29.287Z,33.55
2023-03-21T06:16:56.755Z,35.85
2023-03-21T06:19:24.214Z,33.38
2023-03-21T06:21:51.884Z,32.75
2023-03-21T06:24:19.404Z,35.85
2023-03-21T06:26:48.444Z,35.05
2023-03-21T06:29:15.926Z,33.78
2023-03-21T06:31:43.514Z,33.33
2023-03-21T06:34:11.876Z,35.35
2023-03-21T06:36:39.464Z,32.65
2023-03-21T06:39:07.469Z,35.28
2023-03-21T06:41:35.003Z,34.47
2023-03-21T06:44:04.178Z,36.08
2023-03-21T06:46:32.071Z,34.03
2023-03-21T06:48:59.573Z,35.83
2023-03-21T06:51:27.197Z,33.05
2023-03-21T06:53:54.707Z,36.53
2023-03-21T06:56:22.171Z,36.65
2023-03-21T06:58:50.034Z,35.35
2023-03-21T07:01:19.084Z,35.80
2023-03-21T07:03:46.697Z,36.47
2023-03-21T07:06:14.358Z,33.28
2023-03-21T07:08:42.327Z,32.33
2023-03-21T07:11:10.713Z,34.15
2023-03-21T07:13:38.248Z,34.05
2023-03-21T07:16:06.574Z,35.38
2023-03-21T07:18:36.002Z,33.95
2023-03-21T07:21:03.471Z,33.47
2023-03-21T07:23:30.996Z,32.30
2023-03-21T07:25:58.557Z,32.80
2023-03-21T07:28:26.332Z,32.70
2023-03-21T07:30:55.359Z,32.55
2023-03-21T07:33:23.588Z,31.88
2023-03-21T07:35:52.934Z,30.70
2023-03-21T07:38:21.429Z,30.42
2023-03-21T07:40:49.435Z,33.10
2023-03-21T07:45:49.656Z,32.10
2023-03-21T07:48:19.102Z,32.25
2023-03-21T07:50:46.800Z,31.90
2023-03-21T07:53:15.715Z,30.90
2023-03-21T07:55:43.336Z,30.60
2023-03-21T07:58:11.161Z,30.77
2023-03-21T08:00:38.609Z,28.17
2023-03-21T08:03:06.788Z,30.73
2023-03-21T08:05:36.655Z,30.80
2023-03-21T08:08:05.332Z,31.55
2023-03-21T08:10:35.105Z,29.95
2023-03-21T08:13:02.636Z,29.15
2023-03-21T08:15:30.411Z,30.65
2023-03-21T08:17:59.593Z,28.95
2023-03-21T08:20:27.425Z,29.83
2023-03-21T08:22:55.292Z,29.40
2023-03-21T08:25:23.740Z,29.75
2023-03-21T08:27:52.880Z,28.98
2023-03-21T08:30:22.961Z,28.58
2023-03-21T08:32:51.079Z,26.70
2023-03-21T08:35:20.420Z,31.20
2023-03-21T08:37:48.000Z,29.92
2023-03-21T08:40:17.516Z,28.85
2023-03-21T08:42:46.539Z,27.27
2023-03-21T08:45:17.657Z,27.67
2023-03-21T08:47:45.549Z,27.45
2023-03-21T08:50:19.290Z,27.92
2023-03-21T08:52:46.869Z,28.13
2023-03-21T08:55:15.784Z,30.92
2023-03-21T08:57:43.605Z,27.83
2023-03-21T09:00:14.415Z,28.20
2023-03-21T09:02:43.934Z,28.73
2023-03-21T09:05:12.877Z,28.73
2023-03-21T09:07:40.738Z,28.13
2023-03-21T09:10:25.716Z,29.38
2023-03-21T09:12:54.765Z,26.58
2023-03-21T09:15:24.792Z,29.73
2023-03-21T09:17:54.416Z,28.15
2023-03-21T09:20:31.073Z,27.63
2023-03-21T09:23:20.423Z,29.35
2023-03-21T09:25:47.893Z,25.08
2023-03-21T09:28:16.509Z,27.65
2023-03-21T09:30:44.668Z,27.08
2023-03-21T09:33:21.141Z,26.67
2023-03-21T09:35:51.317Z,25.20
2023-03-21T09:38:19.330Z,25.83
2023-03-21T09:40:58.330Z,26.05
2023-03-21T09:43:38.460Z,25.00
2023-03-21T09:46:10.230Z,24.23
2023-03-21T09:48:53.987Z,26.15
2023-03-21T09:51:24.292Z,24.83
2023-03-21T09:53:52.132Z,22.52
2023-03-21T09:56:19.885Z,23.05
2023-03-21T09:58:53.014Z,23.98
2023-03-21T10:01:27.263Z,22.75
2023-03-21T10:03:57.633Z,26.38
2023-03-21T10:06:28.816Z,26.17
2023-03-21T10:08:58.849Z,25.52
2023-03-21T10:11:28.465Z,27.15
2023-03-21T10:13:57.465Z,23.92
2023-03-21T10:16:29.269Z,22.27
2023-03-21T10:21:56.556Z,21.55
2023-03-21T10:24:17.662Z,23.25
2023-03-21T10:26:46.388Z,22.55
2023-03-21T10:29:16.652Z,21.02
2023-03-21T10:31:44.576Z,22.00
2023-03-21T10:34:18.885Z,21.70
2023-03-21T10:36:46.739Z,20.65
2023-03-21T10:39:22.156Z,20.13
2023-03-21T10:41:49.584Z,24.67
2023-03-21T10:44:18.970Z,19.55
2023-03-21T10:46:54.385Z,19.13
2023-03-21T10:49:23.652Z,21.50
2023-03-21T10:51:53.174Z,18.33
2023-03-21T10:54:22.309Z,22.50
2023-03-21T10:56:58.107Z,18.92
2023-03-21T10:59:27.677Z,18.80
2023-03-21T11:01:56.932Z,18.55
2023-03-21T11:04:28.054Z,19.38
2023-03-21T11:06:56.975Z,18.45
2023-03-21T11:09:26.052Z,17.65
2023-03-21T11:11:55.379Z,16.75
2023-03-21T11:14:34.796Z,16.83
2023-03-21T11:17:02.417Z,17.15
2023-03-21T11:19:34.000Z,16.33
2023-03-21T11:22:07.130Z,15.48
2023-03-21T11:24:35.143Z,15.10
2023-03-21T11:27:07.298Z,14.75
2023-03-21T11:29:36.380Z,14.07
2023-03-21T11:32:11.652Z,13.55
2023-03-21T11:34:47.466Z,14.02
2023-03-21T11:37:21.833Z,14.23
2023-03-21T11:39:49.476Z,13.90
2023-03-21T11:42:30.970Z,15.90
2023-03-21T11:45:02.978Z,17.38
2023-03-21T11:47:31.623Z,15.07
2023-03-21T11:50:05.094Z,14.15
2023-03-21T11:52:39.167Z,14.00
2023-03-21T11:55:24.467Z,13.45
2023-03-21T11:58:05.300Z,13.77
2023-03-21T12:00:43.231Z,13.68
2023-03-21T12:03:47.276Z,13.73
2023-03-21T12:06:23.992Z,13.25
2023-03-21T12:08:58.876Z,12.13
2023-03-21T12:11:30.388Z,12.10
2023-03-21T12:14:04.623Z,11.48
2023-03-21T12:16:43.443Z,12.27
2023-03-21T12:19:17.201Z,12.73
2023-03-21T12:21:55.852Z,12.02
2023-03-21T12:24:24.668Z,12.68
2023-03-21T12:26:59.152Z,13.45
2023-03-21T12:29:35.460Z,14.48
2023-03-21T12:32:12.173Z,12.40
2023-03-21T12:34:53.616Z,13.32
2023-03-21T12:37:29.281Z,14.48
2023-03-21T12:40:01.953Z,12.95
2023-03-21T12:42:43.874Z,13.32
2023-03-21T12:45:15.751Z,12.82
2023-03-21T12:47:45.277Z,12.68
2023-03-21T12:50:16.966Z,11.57
2023-03-21T12:52:48.203Z,12.35
2023-03-21T12:55:20.033Z,13.48
2023-03-21T13:00:28.423Z,12.75
2023-03-21T13:02:58.913Z,11.60
2023-03-21T13:05:29.208Z,11.90
2023-03-21T13:08:01.268Z,11.70
2023-03-21T13:10:28.827Z,11.57
2023-03-21T13:13:43.174Z,12.30
2023-03-21T13:16:13.623Z,11.65
2023-03-21T13:18:48.170Z,12.35
2023-03-21T13:21:17.693Z,12.60
2023-03-21T13:24:00.363Z,11.45
2023-03-21T13:26:34.559Z,10.43
2023-03-21T13:29:02.044Z,10.77
2023-03-21T13:31:33.874Z,10.18
2023-03-21T13:34:10.607Z,11.32
2023-03-21T13:36:47.159Z,11.65
2023-03-21T13:39:19.074Z,12.27
2023-03-21T13:44:23.831Z,11.85
2023-03-21T13:46:56.133Z,11.63
2023-03-21T13:49:29.584Z,11.70
2023-03-21T13:51:58.444Z,11.60
2023-03-21T13:54:45.465Z,11.85
2023-03-21T13:57:23.605Z,11.30
2023-03-21T13:59:51.127Z,11.57
2023-03-21T14:02:24.622Z,11.48
2023-03-21T14:05:07.063Z,11.38
2023-03-21T14:07:36.685Z,12.13
2023-03-21T14:10:09.403Z,12.00
2023-03-21T14:12:39.562Z,10.68
2023-03-21T14:15:16.196Z,12.07
2023-03-21T14:17:51.508Z,10.75
2023-03-21T14:20:22.127Z,10.93
2023-03-21T14:22:51.250Z,11.48
2023-03-21T14:25:21.334Z,10.50
2023-03-21T14:27:50.674Z,10.00
2023-03-21T14:30:24.366Z,10.52
2023-03-21T14:32:55.881Z,9.90
2023-03-21T14:35:23.645Z,10.15
2023-03-21T14:37:51.399Z,9.63
2023-03-21T14:40:23.663Z,9.45
2023-03-21T14:42:52.205Z,9.52
2023-03-21T14:45:22.047Z,10.05
2023-03-21T14:47:57.468Z,9.68
2023-03-21T14:50:26.453Z,9.38
2023-03-21T14:52:54.275Z,9.63
2023-03-21T14:55:23.254Z,9.70
2023-03-21T14:57:51.098Z,9.43
2023-03-21T15:00:23.890Z,9.60
2023-03-21T15:02:52.259Z,9.05
2023-03-21T15:05:22.591Z,8.60
2023-03-21T15:07:56.552Z,10.43
2023-03-21T15:10:26.815Z,9.73
2023-03-21T15:12:56.143Z,8.75
2023-03-21T15:15:27.314Z,10.90
2023-03-21T15:17:56.890Z,9.38
2023-03-21T15:20:27.824Z,9.98
2023-03-21T15:22:56.746Z,11.03
2023-03-21T15:25:29.536Z,10.25
2023-03-21T15:27:57.213Z,10.23
2023-03-21T15:30:26.233Z,10.40
2023-03-21T15:32:53.730Z,10.43
2023-03-21T15:35:23.657Z,12.07
2023-03-21T15:37:56.732Z,10.57
2023-03-21T15:40:27.855Z,12.57
2023-03-21T15:43:06.515Z,12.98
2023-03-21T15:45:34.183Z,12.00
2023-03-21T15:48:03.615Z,14.75
2023-03-21T15:50:35.912Z,14.43
2023-03-21T15:53:05.336Z,15.38
2023-03-21T15:55:40.132Z,15.77
2023-03-21T15:58:13.092Z,16.13
2023-03-21T16:00:42.142Z,15.85
2023-03-21T16:03:17.080Z,17.35
2023-03-21T16:06:03.101Z,16.35
2023-03-21T16:08:35.720Z,17.70
2023-03-21T16:11:16.745Z,16.38
2023-03-21T16:13:44.283Z,17.67
2023-03-21T16:16:17.050Z,18.02
2023-03-21T16:18:44.675Z,19.10
2023-03-21T16:21:13.366Z,19.38
2023-03-21T16:23:40.886Z,20.42
2023-03-21T16:26:53.445Z,20.30
2023-03-21T16:29:22.541Z,21.55
2023-03-21T16:31:50.036Z,20.98
2023-03-21T16:34:17.513Z,19.98
2023-03-21T16:36:45.009Z,20.75
2023-03-21T16:39:17.883Z,20.25
2023-03-21T16:41:45.713Z,20.50
2023-03-21T16:44:13.193Z,21.83
2023-03-21T16:46:42.034Z,22.02
2023-03-21T16:49:18.978Z,21.80
2023-03-21T16:51:46.484Z,21.23
2023-03-21T16:54:13.953Z,20.83
2023-03-21T16:56:44.103Z,21.40
2023-03-21T16:59:12.187Z,23.17
2023-03-21T17:01:41.304Z,21.00
2023-03-21T17:04:11.187Z,22.05
2023-03-21T17:06:44.587Z,21.67
2023-03-21T17:09:13.588Z,23.67
2023-03-21T17:11:41.596Z,27.02
2023-03-21T17:14:09.780Z,28.70
2023-03-21T17:16:40.051Z,26.85
2023-03-21T17:19:13.645Z,24.10
2023-03-21T17:21:41.395Z,23.50
2023-03-21T17:24:09.254Z,23.20
2023-03-21T17:26:36.729Z,21.65
2023-03-21T17:29:04.862Z,22.33
2023-03-21T17:31:35.328Z,23.90
2023-03-21T17:34:03.634Z,22.60
2023-03-21T17:36:35.546Z,23.60
2023-03-21T17:39:04.363Z,21.90
2023-03-21T17:41:31.815Z,22.67
2023-03-21T17:43:59.393Z,24.50
2023-03-21T17:46:29.038Z,25.58
2023-03-21T17:48:56.831Z,23.60
2023-03-21T17:51:26.176Z,24.90
2023-03-21T17:53:55.199Z,25.73
2023-03-21T17:56:26.450Z,24.77
2023-03-21T17:58:54.126Z,17.55
2023-03-21T18:01:23.357Z,24.20
2023-03-21T18:03:51.119Z,23.13
2023-03-21T18:06:19.962Z,21.98
2023-03-21T18:08:48.966Z,23.17
2023-03-21T18:11:18.612Z,22.23
2023-03-21T18:13:46.488Z,24.85
2023-03-21T18:16:16.618Z,24.58
2023-03-21T18:18:45.129Z,23.42
2023-03-21T18:21:12.927Z,22.33
2023-03-21T18:23:41.133Z,25.55
2023-03-21T18:26:10.031Z,22.23
2023-03-21T18:28:41.316Z,27.98
2023-03-21T18:31:15.548Z,28.65
2023-03-21T18:33:46.812Z,30.90
2023-03-21T18:36:16.340Z,38.70
2023-03-21T18:38:44.296Z,37.17
2023-03-21T18:41:11.771Z,33.90
2023-03-21T18:44:05.557Z,28.63
2023-03-21T18:46:28.586Z,27.90
2023-03-21T18:48:56.277Z,25.95
2023-03-21T18:51:25.994Z,23.88
2023-03-21T18:53:53.556Z,21.25
2023-03-21T18:57:19.496Z,20.73
2023-03-21T18:59:10.102Z,16.88
2023-03-21T19:01:37.814Z,17.65
2023-03-21T19:04:20.973Z,16.45
2023-03-21T19:06:51.311Z,16.60
2023-03-21T19:09:18.833Z,18.25
2023-03-21T19:11:47.208Z,19.23
2023-03-21T19:14:17.378Z,19.60
2023-03-21T19:17:26.542Z,20.75
2023-03-21T19:19:33.793Z,18.88
2023-03-21T19:22:01.633Z,18.30
2023-03-21T19:24:29.360Z,17.65
2023-03-21T19:26:57.124Z,18.50
2023-03-21T19:29:26.189Z,19.23
2023-03-21T19:31:53.735Z,17.40
2023-03-21T19:34:21.713Z,16.83
2023-03-21T19:36:51.802Z,18.60
2023-03-21T19:39:22.232Z,18.83
2023-03-21T19:41:50.199Z,17.70
2023-03-21T19:44:18.142Z,20.88
2023-03-21T19:46:48.406Z,20.52
2023-03-21T19:49:20.026Z,22.38
2023-03-21T19:51:48.154Z,21.73
2023-03-21T19:54:17.382Z,21.50
2023-03-21T19:56:47.666Z,22.08
2023-03-21T19:59:15.932Z,20.90
2023-03-21T20:01:43.531Z,20.98
2023-03-21T20:04:12.805Z,20.63
2023-03-21T20:06:40.535Z,17.63
2023-03-21T20:11:57.770Z,18.80
2023-03-21T20:14:25.832Z,17.27
2023-03-21T20:16:55.268Z,17.63
2023-03-21T20:19:25.134Z,18.92
2023-03-21T20:21:58.762Z,17.77
2023-03-21T20:24:27.575Z,18.73
2023-03-21T20:26:55.648Z,19.33
2023-03-21T20:32:11.544Z,18.98
2023-03-21T20:34:40.641Z,20.17
2023-03-21T20:37:08.147Z,19.40
2023-03-21T20:39:36.043Z,20.50
2023-03-21T20:42:05.940Z,19.17
2023-03-21T20:44:56.045Z,18.67
2023-03-21T20:47:21.767Z,20.20
2023-03-21T20:49:50.859Z,20.40
2023-03-21T20:55:09.026Z,22.08
2023-03-21T20:57:38.841Z,21.60
2023-03-21T21:00:13.684Z,22.50
2023-03-21T21:02:41.959Z,22.02
2023-03-21T21:05:25.138Z,23.73
2023-03-21T21:07:55.194Z,24.75
2023-03-21T21:10:23.018Z,25.58
2023-03-21T21:12:50.489Z,25.20
2023-03-21T21:15:17.965Z,23.05
2023-03-21T21:18:04.903Z,24.02
2023-03-21T21:20:35.247Z,23.75
2023-03-21T21:23:02.957Z,23.48
2023-03-21T21:25:32.495Z,24.00
2023-03-21T21:28:01.613Z,24.38
2023-03-21T21:30:30.263Z,23.17
2023-03-21T21:32:59.529Z,22.70
2023-03-21T21:35:27.316Z,25.10
2023-03-21T21:37:56.135Z,24.00
2023-03-21T21:40:24.181Z,22.10
2023-03-21T21:42:51.710Z,22.25
2023-03-21T21:45:20.166Z,23.23
2023-03-21T21:47:47.678Z,22.63
2023-03-21T21:50:15.454Z,23.55
2023-03-21T21:52:52.488Z,22.45
2023-03-21T21:55:21.619Z,21.40
2023-03-21T21:57:50.970Z,22.75
2023-03-21T22:00:20.219Z,25.13
2023-03-21T22:02:48.005Z,24.15
2023-03-21T22:05:16.289Z,25.35
2023-03-21T22:07:53.904Z,27.77
2023-03-21T22:10:24.482Z,25.55
2023-03-21T22:12:52.029Z,26.35
2023-03-21T22:15:22.464Z,26.90
2023-03-21T22:17:50.081Z,24.70
2023-03-21T22:20:20.181Z,24.15
2023-03-21T22:22:48.126Z,24.77
2023-03-21T22:25:16.922Z,25.30
2023-03-21T22:27:45.925Z,25.25
2023-03-21T22:30:17.226Z,26.00
2023-03-21T22:32:51.517Z,16.58
2023-03-21T22:35:24.283Z,24.75
2023-03-21T22:37:52.340Z,23.30
2023-03-21T22:40:21.129Z,24.80
2023-03-21T22:42:50.494Z,23.00
2023-03-21T22:45:18.040Z,24.48
2023-03-21T22:47:45.895Z,23.48
2023-03-21T22:50:13.513Z,22.58
2023-03-21T22:52:40.990Z,23.10
2023-03-21T22:55:10.051Z,24.30
2023-03-21T22:57:37.552Z,21.85
2023-03-21T23:00:13.603Z,21.27
2023-03-21T23:02:41.888Z,21.52
2023-03-21T23:05:09.784Z,21.65
2023-03-21T23:07:37.394Z,22.45
2023-03-21T23:10:05.605Z,20.15
2023-03-21T23:12:33.319Z,20.67
2023-03-21T23:15:02.266Z,21.05
2023-03-21T23:17:33.819Z,20.80
2023-03-21T23:20:01.741Z,20.52
2023-03-21T23:22:30.901Z,20.90
2023-03-21T23:24:58.379Z,19.65
2023-03-21T23:27:25.945Z,18.48
2023-03-21T23:29:54.229Z,18.80
2023-03-21T23:32:21.798Z,19.15
2023-03-21T23:34:50.743Z,18.83
2023-03-21T23:37:18.237Z,18.50
2023-03-21T23:39:46.147Z,21.27
2023-03-21T23:42:13.651Z,18.92
2023-03-21T23:44:41.694Z,19.30
2023-03-21T23:47:09.200Z,19.95
2023-03-21T23:49:39.034Z,21.95
2023-03-21T23:52:07.812Z,21.20
2023-03-21T23:54:35.483Z,17.95
2023-03-21T23:57:03.092Z,21.02
2023-03-21T23:59:30.916Z,20.15
